Empire, Louisiana
Current Conditions -  °F | °C
As of 6:09 PM on Sunday 21 Dec 2014 (Local Time) from KBVE Reporting Station
Haze Haze  
Wind Chill: 56°   Ceiling: 900
Heat Index: 56°   Visibility: 5mi
Dew Point: 55°   Wind: 7mph
Humidity: 97%   Direction: 70°ENE
Pressure: 29.99"   Gusts: NA
Location:  29.39°N, 89.6°W
Report Text: KBVE 220009Z AUTO 07006KT 5SM BR OVC009 13/13 A2999 RMK AO2 CIG 006V012 T01330128
Loading
Personal Weather Stations






























Interactive Weather Map New forecast layout! Learn more

10-Day Weather Forecast

Advertisements
Track Severe Weather on mobile